sensor_id;sensor_type;location;lat;lon;timestamp;P1;durP1;ratioP1;P2;durP2;ratioP2
47259;SDS011;32999;52.412;4.890;2023-05-28T00:03:23;20.13;;;4.97;;
47259;SDS011;32999;52.412;4.890;2023-05-28T00:08:25;15.10;;;4.72;;
47259;SDS011;32999;52.412;4.890;2023-05-28T00:13:27;14.85;;;4.13;;
47259;SDS011;32999;52.412;4.890;2023-05-28T00:18:29;14.63;;;4.45;;
47259;SDS011;32999;52.412;4.890;2023-05-28T00:23:31;18.30;;;5.28;;
47259;SDS011;32999;52.412;4.890;2023-05-28T00:28:32;11.57;;;4.53;;
47259;SDS011;32999;52.412;4.890;2023-05-28T00:33:35;16.92;;;5.75;;
47259;SDS011;32999;52.412;4.890;2023-05-28T00:38:37;14.05;;;4.10;;
47259;SDS011;32999;52.412;4.890;2023-05-28T00:43:39;24.42;;;5.63;;
47259;SDS011;32999;52.412;4.890;2023-05-28T00:48:42;17.67;;;5.55;;
47259;SDS011;32999;52.412;4.890;2023-05-28T00:53:43;15.32;;;4.78;;
47259;SDS011;32999;52.412;4.890;2023-05-28T00:58:44;15.10;;;4.13;;
47259;SDS011;32999;52.412;4.890;2023-05-28T01:03:49;19.83;;;4.55;;
47259;SDS011;32999;52.412;4.890;2023-05-28T01:08:51;10.48;;;4.47;;
47259;SDS011;32999;52.412;4.890;2023-05-28T01:13:53;17.90;;;4.90;;
47259;SDS011;32999;52.412;4.890;2023-05-28T01:18:56;12.80;;;4.20;;
47259;SDS011;32999;52.412;4.890;2023-05-28T01:23:59;18.23;;;5.32;;
47259;SDS011;32999;52.412;4.890;2023-05-28T01:29:12;17.25;;;4.97;;
47259;SDS011;32999;52.412;4.890;2023-05-28T01:34:14;19.02;;;4.35;;
47259;SDS011;32999;52.412;4.890;2023-05-28T01:39:17;18.95;;;5.30;;
47259;SDS011;32999;52.412;4.890;2023-05-28T01:44:21;16.50;;;5.50;;
47259;SDS011;32999;52.412;4.890;2023-05-28T01:49:23;17.88;;;6.32;;
47259;SDS011;32999;52.412;4.890;2023-05-28T01:54:26;16.45;;;5.22;;
47259;SDS011;32999;52.412;4.890;2023-05-28T01:59:27;13.43;;;5.07;;
47259;SDS011;32999;52.412;4.890;2023-05-28T02:04:29;11.88;;;4.57;;
47259;SDS011;32999;52.412;4.890;2023-05-28T02:09:32;17.23;;;5.18;;
47259;SDS011;32999;52.412;4.890;2023-05-28T02:14:33;13.48;;;4.43;;
47259;SDS011;32999;52.412;4.890;2023-05-28T02:19:34;12.90;;;4.32;;
47259;SDS011;32999;52.412;4.890;2023-05-28T02:24:37;17.10;;;5.10;;
47259;SDS011;32999;52.412;4.890;2023-05-28T02:29:39;17.08;;;5.30;;
47259;SDS011;32999;52.412;4.890;2023-05-28T02:34:40;13.60;;;5.07;;
47259;SDS011;32999;52.412;4.890;2023-05-28T02:39:43;13.10;;;5.18;;
47259;SDS011;32999;52.412;4.890;2023-05-28T02:44:45;16.55;;;4.78;;
47259;SDS011;32999;52.412;4.890;2023-05-28T02:49:46;10.52;;;5.53;;
47259;SDS011;32999;52.412;4.890;2023-05-28T02:54:49;9.88;;;5.00;;
47259;SDS011;32999;52.412;4.890;2023-05-28T02:59:50;10.77;;;5.10;;
47259;SDS011;32999;52.412;4.890;2023-05-28T03:04:52;17.55;;;5.88;;
47259;SDS011;32999;52.412;4.890;2023-05-28T03:09:56;17.38;;;5.72;;
47259;SDS011;32999;52.412;4.890;2023-05-28T03:14:57;16.35;;;5.75;;
47259;SDS011;32999;52.412;4.890;2023-05-28T03:19:59;13.32;;;5.28;;
47259;SDS011;32999;52.412;4.890;2023-05-28T03:25:01;9.82;;;5.50;;
47259;SDS011;32999;52.412;4.890;2023-05-28T03:30:03;13.73;;;5.47;;
47259;SDS011;32999;52.412;4.890;2023-05-28T03:35:06;16.83;;;5.95;;
47259;SDS011;32999;52.412;4.890;2023-05-28T03:40:10;19.48;;;6.93;;
47259;SDS011;32999;52.412;4.890;2023-05-28T03:45:12;11.15;;;5.78;;
47259;SDS011;32999;52.412;4.890;2023-05-28T03:50:13;14.55;;;5.50;;
47259;SDS011;32999;52.412;4.890;2023-05-28T03:55:18;19.90;;;7.65;;
47259;SDS011;32999;52.412;4.890;2023-05-28T04:00:19;14.68;;;6.55;;
47259;SDS011;32999;52.412;4.890;2023-05-28T04:05:21;21.00;;;6.53;;
47259;SDS011;32999;52.412;4.890;2023-05-28T04:10:24;15.85;;;6.03;;
47259;SDS011;32999;52.412;4.890;2023-05-28T04:15:25;21.05;;;5.75;;
47259;SDS011;32999;52.412;4.890;2023-05-28T04:20:27;14.30;;;5.68;;
47259;SDS011;32999;52.412;4.890;2023-05-28T04:25:31;15.82;;;5.82;;
47259;SDS011;32999;52.412;4.890;2023-05-28T04:30:32;16.92;;;6.35;;
47259;SDS011;32999;52.412;4.890;2023-05-28T04:35:34;16.40;;;5.53;;
47259;SDS011;32999;52.412;4.890;2023-05-28T04:40:36;13.75;;;5.47;;
47259;SDS011;32999;52.412;4.890;2023-05-28T04:45:38;13.63;;;4.60;;
47259;SDS011;32999;52.412;4.890;2023-05-28T04:50:39;15.57;;;5.70;;
47259;SDS011;32999;52.412;4.890;2023-05-28T04:55:43;18.23;;;5.78;;
47259;SDS011;32999;52.412;4.890;2023-05-28T05:00:45;17.30;;;4.85;;
47259;SDS011;32999;52.412;4.890;2023-05-28T05:05:46;16.45;;;5.10;;
47259;SDS011;32999;52.412;4.890;2023-05-28T05:10:49;18.25;;;5.00;;
47259;SDS011;32999;52.412;4.890;2023-05-28T05:15:51;20.10;;;5.70;;
47259;SDS011;32999;52.412;4.890;2023-05-28T05:20:52;11.77;;;4.22;;
47259;SDS011;32999;52.412;4.890;2023-05-28T05:25:56;13.02;;;4.45;;
47259;SDS011;32999;52.412;4.890;2023-05-28T05:30:58;11.45;;;4.13;;
47259;SDS011;32999;52.412;4.890;2023-05-28T05:36:00;16.35;;;5.10;;
47259;SDS011;32999;52.412;4.890;2023-05-28T05:41:03;11.02;;;4.20;;
47259;SDS011;32999;52.412;4.890;2023-05-28T05:46:04;12.52;;;3.90;;
47259;SDS011;32999;52.412;4.890;2023-05-28T05:51:06;17.70;;;4.72;;
47259;SDS011;32999;52.412;4.890;2023-05-28T05:56:09;17.00;;;4.53;;
47259;SDS011;32999;52.412;4.890;2023-05-28T06:01:10;11.80;;;3.92;;
47259;SDS011;32999;52.412;4.890;2023-05-28T06:06:14;14.53;;;4.10;;
47259;SDS011;32999;52.412;4.890;2023-05-28T06:11:16;8.98;;;4.03;;
47259;SDS011;32999;52.412;4.890;2023-05-28T06:16:18;13.80;;;3.83;;
47259;SDS011;32999;52.412;4.890;2023-05-28T06:21:20;12.25;;;4.22;;
47259;SDS011;32999;52.412;4.890;2023-05-28T06:26:23;12.60;;;3.53;;
47259;SDS011;32999;52.412;4.890;2023-05-28T06:31:24;8.45;;;3.63;;
47259;SDS011;32999;52.412;4.890;2023-05-28T06:36:25;11.85;;;3.35;;
47259;SDS011;32999;52.412;4.890;2023-05-28T06:41:28;10.35;;;3.05;;
47259;SDS011;32999;52.412;4.890;2023-05-28T06:46:30;9.80;;;3.28;;
47259;SDS011;32999;52.412;4.890;2023-05-28T06:51:32;8.95;;;3.50;;
47259;SDS011;32999;52.412;4.890;2023-05-28T06:56:35;14.25;;;3.53;;
47259;SDS011;32999;52.412;4.890;2023-05-28T07:01:36;12.63;;;4.47;;
47259;SDS011;32999;52.412;4.890;2023-05-28T07:06:38;13.75;;;4.03;;
47259;SDS011;32999;52.412;4.890;2023-05-28T07:11:41;8.77;;;3.38;;
47259;SDS011;32999;52.412;4.890;2023-05-28T07:16:42;10.95;;;4.50;;
47259;SDS011;32999;52.412;4.890;2023-05-28T07:21:45;11.02;;;3.67;;
47259;SDS011;32999;52.412;4.890;2023-05-28T07:26:48;12.35;;;4.13;;
47259;SDS011;32999;52.412;4.890;2023-05-28T07:31:50;8.10;;;2.93;;
47259;SDS011;32999;52.412;4.890;2023-05-28T07:36:51;13.32;;;3.58;;
47259;SDS011;32999;52.412;4.890;2023-05-28T07:41:54;8.95;;;3.30;;
47259;SDS011;32999;52.412;4.890;2023-05-28T07:46:56;13.52;;;3.30;;
47259;SDS011;32999;52.412;4.890;2023-05-28T07:51:57;8.25;;;3.42;;
47259;SDS011;32999;52.412;4.890;2023-05-28T07:57:00;17.52;;;4.25;;
47259;SDS011;32999;52.412;4.890;2023-05-28T08:02:02;10.80;;;3.35;;
47259;SDS011;32999;52.412;4.890;2023-05-28T08:07:04;10.15;;;3.75;;
47259;SDS011;32999;52.412;4.890;2023-05-28T08:12:07;40.50;;;7.45;;
47259;SDS011;32999;52.412;4.890;2023-05-28T08:17:09;11.17;;;4.23;;
47259;SDS011;32999;52.412;4.890;2023-05-28T08:22:11;14.43;;;4.57;;
47259;SDS011;32999;52.412;4.890;2023-05-28T08:27:14;12.20;;;4.55;;
47259;SDS011;32999;52.412;4.890;2023-05-28T08:32:15;13.35;;;4.43;;
47259;SDS011;32999;52.412;4.890;2023-05-28T08:37:16;10.90;;;4.45;;
47259;SDS011;32999;52.412;4.890;2023-05-28T08:42:19;13.40;;;4.28;;
47259;SDS011;32999;52.412;4.890;2023-05-28T08:47:21;10.93;;;4.22;;
47259;SDS011;32999;52.412;4.890;2023-05-28T08:52:22;11.07;;;4.57;;
47259;SDS011;32999;52.412;4.890;2023-05-28T08:57:26;15.15;;;5.68;;
47259;SDS011;32999;52.412;4.890;2023-05-28T09:07:30;11.30;;;4.05;;
47259;SDS011;32999;52.412;4.890;2023-05-28T09:12:33;12.95;;;4.95;;
47259;SDS011;32999;52.412;4.890;2023-05-28T09:17:37;9.45;;;4.18;;
47259;SDS011;32999;52.412;4.890;2023-05-28T09:22:39;13.27;;;4.72;;
47259;SDS011;32999;52.412;4.890;2023-05-28T09:27:42;12.93;;;5.18;;
47259;SDS011;32999;52.412;4.890;2023-05-28T09:32:44;12.73;;;3.92;;
47259;SDS011;32999;52.412;4.890;2023-05-28T09:37:46;11.13;;;4.18;;
47259;SDS011;32999;52.412;4.890;2023-05-28T09:42:48;13.05;;;4.20;;
47259;SDS011;32999;52.412;4.890;2023-05-28T09:47:52;11.43;;;5.25;;
47259;SDS011;32999;52.412;4.890;2023-05-28T09:52:54;11.48;;;4.32;;
47259;SDS011;32999;52.412;4.890;2023-05-28T09:58:00;9.73;;;4.75;;
47259;SDS011;32999;52.412;4.890;2023-05-28T10:03:05;11.05;;;4.47;;
47259;SDS011;32999;52.412;4.890;2023-05-28T10:08:11;13.20;;;4.97;;
47259;SDS011;32999;52.412;4.890;2023-05-28T10:13:16;9.60;;;4.20;;
47259;SDS011;32999;52.412;4.890;2023-05-28T10:18:17;8.93;;;3.80;;
47259;SDS011;32999;52.412;4.890;2023-05-28T10:23:19;11.93;;;4.10;;
47259;SDS011;32999;52.412;4.890;2023-05-28T10:28:23;10.02;;;4.03;;
47259;SDS011;32999;52.412;4.890;2023-05-28T10:33:24;12.23;;;4.45;;
47259;SDS011;32999;52.412;4.890;2023-05-28T10:38:26;16.13;;;5.35;;
47259;SDS011;32999;52.412;4.890;2023-05-28T10:43:42;11.68;;;4.57;;
47259;SDS011;32999;52.412;4.890;2023-05-28T10:49:04;17.05;;;3.88;;
47259;SDS011;32999;52.412;4.890;2023-05-28T10:54:13;10.70;;;2.97;;
47259;SDS011;32999;52.412;4.890;2023-05-28T10:59:16;9.25;;;4.25;;
47259;SDS011;32999;52.412;4.890;2023-05-28T11:04:17;11.70;;;4.13;;
47259;SDS011;32999;52.412;4.890;2023-05-28T11:09:19;12.70;;;4.43;;
47259;SDS011;32999;52.412;4.890;2023-05-28T11:14:22;10.57;;;4.47;;
47259;SDS011;32999;52.412;4.890;2023-05-28T11:19:23;9.85;;;3.97;;
47259;SDS011;32999;52.412;4.890;2023-05-28T11:24:25;9.57;;;4.50;;
47259;SDS011;32999;52.412;4.890;2023-05-28T11:29:28;12.55;;;5.25;;
47259;SDS011;32999;52.412;4.890;2023-05-28T11:34:30;14.05;;;4.03;;
47259;SDS011;32999;52.412;4.890;2023-05-28T11:39:31;8.60;;;3.97;;
47259;SDS011;32999;52.412;4.890;2023-05-28T11:44:34;11.05;;;4.90;;
47259;SDS011;32999;52.412;4.890;2023-05-28T11:49:36;11.00;;;4.50;;
47259;SDS011;32999;52.412;4.890;2023-05-28T11:54:38;9.57;;;4.05;;
47259;SDS011;32999;52.412;4.890;2023-05-28T11:59:42;10.43;;;4.10;;
47259;SDS011;32999;52.412;4.890;2023-05-28T12:04:58;8.18;;;3.63;;
47259;SDS011;32999;52.412;4.890;2023-05-28T12:10:03;10.13;;;3.78;;
47259;SDS011;32999;52.412;4.890;2023-05-28T12:15:07;6.78;;;3.75;;
47259;SDS011;32999;52.412;4.890;2023-05-28T12:25:10;8.38;;;3.92;;
47259;SDS011;32999;52.412;4.890;2023-05-28T12:30:13;8.52;;;4.65;;
47259;SDS011;32999;52.412;4.890;2023-05-28T12:40:16;8.15;;;3.85;;
47259;SDS011;32999;52.412;4.890;2023-05-28T12:45:19;9.65;;;4.38;;
47259;SDS011;32999;52.412;4.890;2023-05-28T12:50:21;9.23;;;4.55;;
47259;SDS011;32999;52.412;4.890;2023-05-28T12:55:23;7.55;;;4.25;;
47259;SDS011;32999;52.412;4.890;2023-05-28T13:00:26;7.72;;;4.32;;
47259;SDS011;32999;52.412;4.890;2023-05-28T13:05:28;10.20;;;3.97;;
47259;SDS011;32999;52.412;4.890;2023-05-28T13:10:32;7.85;;;3.95;;
47259;SDS011;32999;52.412;4.890;2023-05-28T13:15:36;6.10;;;3.50;;
47259;SDS011;32999;52.412;4.890;2023-05-28T13:20:38;9.52;;;3.70;;
47259;SDS011;32999;52.412;4.890;2023-05-28T13:25:40;6.13;;;2.65;;
47259;SDS011;32999;52.412;4.890;2023-05-28T13:30:43;5.43;;;2.70;;
47259;SDS011;32999;52.412;4.890;2023-05-28T13:35:45;6.20;;;2.53;;
47259;SDS011;32999;52.412;4.890;2023-05-28T13:40:46;5.78;;;2.22;;
47259;SDS011;32999;52.412;4.890;2023-05-28T13:45:49;5.45;;;2.33;;
47259;SDS011;32999;52.412;4.890;2023-05-28T13:50:51;6.63;;;2.55;;
47259;SDS011;32999;52.412;4.890;2023-05-28T13:55:52;7.45;;;2.25;;
47259;SDS011;32999;52.412;4.890;2023-05-28T14:00:55;7.20;;;2.50;;
47259;SDS011;32999;52.412;4.890;2023-05-28T14:05:58;9.70;;;2.47;;
47259;SDS011;32999;52.412;4.890;2023-05-28T14:10:59;6.75;;;2.28;;
47259;SDS011;32999;52.412;4.890;2023-05-28T14:16:02;7.07;;;3.35;;
47259;SDS011;32999;52.412;4.890;2023-05-28T14:21:04;7.10;;;2.80;;
47259;SDS011;32999;52.412;4.890;2023-05-28T14:26:06;6.28;;;2.55;;
47259;SDS011;32999;52.412;4.890;2023-05-28T14:41:56;20.92;;;11.20;;
47259;SDS011;32999;52.412;4.890;2023-05-28T14:46:57;6.60;;;3.00;;
47259;SDS011;32999;52.412;4.890;2023-05-28T14:51:59;12.57;;;5.07;;
47259;SDS011;32999;52.412;4.890;2023-05-28T14:57:22;9.30;;;2.10;;
47259;SDS011;32999;52.412;4.890;2023-05-28T15:02:23;6.33;;;2.67;;
47259;SDS011;32999;52.412;4.890;2023-05-28T15:07:25;6.93;;;2.40;;
47259;SDS011;32999;52.412;4.890;2023-05-28T15:12:27;8.40;;;3.03;;
47259;SDS011;32999;52.412;4.890;2023-05-28T15:17:29;8.93;;;3.72;;
47259;SDS011;32999;52.412;4.890;2023-05-28T15:22:30;12.02;;;7.80;;
47259;SDS011;32999;52.412;4.890;2023-05-28T15:27:34;9.70;;;4.05;;
47259;SDS011;32999;52.412;4.890;2023-05-28T15:32:36;8.85;;;4.30;;
47259;SDS011;32999;52.412;4.890;2023-05-28T15:37:39;12.30;;;4.65;;
47259;SDS011;32999;52.412;4.890;2023-05-28T15:42:45;10.30;;;4.13;;
47259;SDS011;32999;52.412;4.890;2023-05-28T15:47:48;12.20;;;3.78;;
47259;SDS011;32999;52.412;4.890;2023-05-28T15:52:50;8.18;;;2.13;;
47259;SDS011;32999;52.412;4.890;2023-05-28T15:57:53;6.57;;;3.42;;
47259;SDS011;32999;52.412;4.890;2023-05-28T16:02:55;8.77;;;2.70;;
47259;SDS011;32999;52.412;4.890;2023-05-28T16:07:58;11.40;;;3.63;;
47259;SDS011;32999;52.412;4.890;2023-05-28T16:13:01;9.52;;;2.90;;
47259;SDS011;32999;52.412;4.890;2023-05-28T16:18:05;18.73;;;3.50;;
47259;SDS011;32999;52.412;4.890;2023-05-28T16:23:07;10.57;;;3.42;;
47259;SDS011;32999;52.412;4.890;2023-05-28T16:28:11;8.85;;;3.00;;
47259;SDS011;32999;52.412;4.890;2023-05-28T16:33:12;7.55;;;2.90;;
47259;SDS011;32999;52.412;4.890;2023-05-28T16:38:15;10.55;;;3.05;;
47259;SDS011;32999;52.412;4.890;2023-05-28T16:43:20;12.20;;;3.30;;
47259;SDS011;32999;52.412;4.890;2023-05-28T16:48:21;7.45;;;2.55;;
47259;SDS011;32999;52.412;4.890;2023-05-28T16:53:23;9.57;;;2.58;;
47259;SDS011;32999;52.412;4.890;2023-05-28T16:58:26;9.10;;;2.50;;
47259;SDS011;32999;52.412;4.890;2023-05-28T17:03:27;9.63;;;2.72;;
47259;SDS011;32999;52.412;4.890;2023-05-28T17:08:29;7.97;;;2.75;;
47259;SDS011;32999;52.412;4.890;2023-05-28T17:13:32;7.95;;;3.25;;
47259;SDS011;32999;52.412;4.890;2023-05-28T17:18:34;17.85;;;3.75;;
47259;SDS011;32999;52.412;4.890;2023-05-28T17:23:35;15.80;;;4.63;;
47259;SDS011;32999;52.412;4.890;2023-05-28T17:28:38;12.70;;;3.65;;
47259;SDS011;32999;52.412;4.890;2023-05-28T17:33:40;12.35;;;3.63;;
47259;SDS011;32999;52.412;4.890;2023-05-28T17:38:41;13.27;;;4.95;;
47259;SDS011;32999;52.412;4.890;2023-05-28T17:43:44;11.85;;;3.88;;
47259;SDS011;32999;52.412;4.890;2023-05-28T17:48:46;10.60;;;4.20;;
47259;SDS011;32999;52.412;4.890;2023-05-28T17:53:47;9.68;;;4.35;;
47259;SDS011;32999;52.412;4.890;2023-05-28T17:58:50;13.27;;;4.65;;
47259;SDS011;32999;52.412;4.890;2023-05-28T18:03:52;11.55;;;4.78;;
47259;SDS011;32999;52.412;4.890;2023-05-28T18:08:53;11.48;;;5.10;;
47259;SDS011;32999;52.412;4.890;2023-05-28T18:13:56;11.13;;;4.28;;
47259;SDS011;32999;52.412;4.890;2023-05-28T18:18:58;16.42;;;5.30;;
47259;SDS011;32999;52.412;4.890;2023-05-28T18:24:05;12.23;;;4.72;;
47259;SDS011;32999;52.412;4.890;2023-05-28T18:29:08;10.38;;;4.40;;
47259;SDS011;32999;52.412;4.890;2023-05-28T18:34:09;16.92;;;4.57;;
47259;SDS011;32999;52.412;4.890;2023-05-28T18:39:11;10.30;;;5.05;;
47259;SDS011;32999;52.412;4.890;2023-05-28T18:44:14;10.68;;;4.22;;
47259;SDS011;32999;52.412;4.890;2023-05-28T18:49:16;11.25;;;4.43;;
47259;SDS011;32999;52.412;4.890;2023-05-28T18:54:17;13.25;;;3.45;;
47259;SDS011;32999;52.412;4.890;2023-05-28T18:59:20;10.35;;;3.78;;
47259;SDS011;32999;52.412;4.890;2023-05-28T19:04:22;9.63;;;3.95;;
47259;SDS011;32999;52.412;4.890;2023-05-28T19:09:23;8.27;;;4.07;;
47259;SDS011;32999;52.412;4.890;2023-05-28T19:14:26;14.73;;;5.78;;
47259;SDS011;32999;52.412;4.890;2023-05-28T19:19:27;10.32;;;3.80;;
47259;SDS011;32999;52.412;4.890;2023-05-28T19:24:29;11.05;;;3.15;;
47259;SDS011;32999;52.412;4.890;2023-05-28T19:29:32;11.73;;;2.90;;
47259;SDS011;32999;52.412;4.890;2023-05-28T19:34:34;15.57;;;5.00;;
47259;SDS011;32999;52.412;4.890;2023-05-28T19:39:36;16.58;;;6.72;;
47259;SDS011;32999;52.412;4.890;2023-05-28T19:44:38;12.43;;;3.20;;
47259;SDS011;32999;52.412;4.890;2023-05-28T19:49:40;10.85;;;5.85;;
47259;SDS011;32999;52.412;4.890;2023-05-28T19:54:41;7.38;;;1.83;;
47259;SDS011;32999;52.412;4.890;2023-05-28T19:59:44;8.95;;;2.50;;
47259;SDS011;32999;52.412;4.890;2023-05-28T20:04:46;6.53;;;2.13;;
47259;SDS011;32999;52.412;4.890;2023-05-28T20:09:47;14.70;;;5.22;;
47259;SDS011;32999;52.412;4.890;2023-05-28T20:14:51;11.88;;;4.60;;
47259;SDS011;32999;52.412;4.890;2023-05-28T20:19:52;11.55;;;2.15;;
47259;SDS011;32999;52.412;4.890;2023-05-28T20:24:54;10.77;;;3.03;;
47259;SDS011;32999;52.412;4.890;2023-05-28T20:29:57;8.27;;;1.98;;
47259;SDS011;32999;52.412;4.890;2023-05-28T20:34:58;9.07;;;2.05;;
47259;SDS011;32999;52.412;4.890;2023-05-28T20:40:00;8.18;;;1.67;;
47259;SDS011;32999;52.412;4.890;2023-05-28T20:45:05;14.70;;;1.95;;
47259;SDS011;32999;52.412;4.890;2023-05-28T20:50:07;7.90;;;1.67;;
47259;SDS011;32999;52.412;4.890;2023-05-28T20:55:08;9.38;;;2.13;;
47259;SDS011;32999;52.412;4.890;2023-05-28T21:00:12;11.75;;;2.45;;
47259;SDS011;32999;52.412;4.890;2023-05-28T21:05:14;8.93;;;1.97;;
47259;SDS011;32999;52.412;4.890;2023-05-28T21:10:16;26.60;;;3.13;;
47259;SDS011;32999;52.412;4.890;2023-05-28T21:15:19;13.60;;;2.63;;
47259;SDS011;32999;52.412;4.890;2023-05-28T21:20:21;12.35;;;1.90;;
47259;SDS011;32999;52.412;4.890;2023-05-28T21:25:22;14.38;;;2.08;;
47259;SDS011;32999;52.412;4.890;2023-05-28T21:30:25;13.35;;;2.70;;
47259;SDS011;32999;52.412;4.890;2023-05-28T21:35:28;12.77;;;1.63;;
47259;SDS011;32999;52.412;4.890;2023-05-28T21:40:29;9.98;;;1.83;;
47259;SDS011;32999;52.412;4.890;2023-05-28T21:45:32;15.82;;;2.30;;
47259;SDS011;32999;52.412;4.890;2023-05-28T21:50:34;15.35;;;1.90;;
47259;SDS011;32999;52.412;4.890;2023-05-28T21:55:36;12.32;;;1.98;;
47259;SDS011;32999;52.412;4.890;2023-05-28T22:00:39;16.40;;;2.47;;
47259;SDS011;32999;52.412;4.890;2023-05-28T22:05:41;10.02;;;1.67;;
47259;SDS011;32999;52.412;4.890;2023-05-28T22:10:42;13.48;;;2.05;;
47259;SDS011;32999;52.412;4.890;2023-05-28T22:15:45;10.23;;;1.70;;
47259;SDS011;32999;52.412;4.890;2023-05-28T22:20:46;11.32;;;1.90;;
47259;SDS011;32999;52.412;4.890;2023-05-28T22:25:49;12.77;;;2.58;;
47259;SDS011;32999;52.412;4.890;2023-05-28T22:30:52;20.88;;;2.70;;
47259;SDS011;32999;52.412;4.890;2023-05-28T22:35:56;14.85;;;2.38;;
47259;SDS011;32999;52.412;4.890;2023-05-28T22:40:57;20.70;;;2.55;;
47259;SDS011;32999;52.412;4.890;2023-05-28T22:46:00;18.15;;;2.22;;
47259;SDS011;32999;52.412;4.890;2023-05-28T22:51:02;13.85;;;2.20;;
47259;SDS011;32999;52.412;4.890;2023-05-28T22:56:03;11.80;;;1.92;;
47259;SDS011;32999;52.412;4.890;2023-05-28T23:01:07;15.98;;;2.40;;
47259;SDS011;32999;52.412;4.890;2023-05-28T23:06:09;13.18;;;2.13;;
47259;SDS011;32999;52.412;4.890;2023-05-28T23:11:10;16.80;;;2.03;;
47259;SDS011;32999;52.412;4.890;2023-05-28T23:16:13;10.65;;;1.55;;
47259;SDS011;32999;52.412;4.890;2023-05-28T23:21:15;10.90;;;1.48;;
47259;SDS011;32999;52.412;4.890;2023-05-28T23:26:17;14.48;;;3.10;;
47259;SDS011;32999;52.412;4.890;2023-05-28T23:31:20;12.82;;;1.52;;
47259;SDS011;32999;52.412;4.890;2023-05-28T23:36:22;10.57;;;1.73;;
47259;SDS011;32999;52.412;4.890;2023-05-28T23:41:24;9.68;;;1.98;;
47259;SDS011;32999;52.412;4.890;2023-05-28T23:46:27;11.52;;;1.88;;
47259;SDS011;32999;52.412;4.890;2023-05-28T23:51:32;10.57;;;1.60;;
47259;SDS011;32999;52.412;4.890;2023-05-28T23:56:35;10.27;;;1.60;;
